Time,TemperatureF,DewpointF,PressureIn,WindDirection,WindDirectionDegrees,WindSpeedMPH,WindSpeedGustMPH,Humidity,HourlyPrecipIn,Conditions,Clouds,dailyrainin,SoftwareType,DateUTC
2013-04-28 00:00:00,70.3,69.0,30.07,SSE,167,0.0,-999.0,96,-99.99,,,0.00,weatherlink.com 1.10,2013-04-28 05:00:00,
2013-04-28 00:16:00,70.2,69.0,30.06,SSE,167,2.0,-999.0,97,-99.99,,,0.00,weatherlink.com 1.10,2013-04-28 05:16:00,
2013-04-28 00:29:00,70.1,69.0,30.06,SSE,167,0.0,-999.0,97,-99.99,,,0.00,weatherlink.com 1.10,2013-04-28 05:29:00,
2013-04-28 00:44:00,69.7,69.0,30.05,SSE,168,0.0,-999.0,97,-99.99,,,0.00,weatherlink.com 1.10,2013-04-28 05:44:00,
2013-04-28 01:00:00,69.6,69.0,30.05,SSE,167,0.0,-999.0,97,-99.99,,,0.00,weatherlink.com 1.10,2013-04-28 06:00:00,
2013-04-28 01:15:00,69.6,69.0,30.05,SSE,165,0.0,-999.0,97,-99.99,,,0.00,weatherlink.com 1.10,2013-04-28 06:15:00,
2013-04-28 01:30:00,69.5,69.0,30.04,SSE,165,0.0,-999.0,98,-99.99,,,0.00,weatherlink.com 1.10,2013-04-28 06:30:00,
2013-04-28 01:45:00,69.5,69.0,30.04,SSE,165,0.0,-999.0,98,-99.99,,,0.00,weatherlink.com 1.10,2013-04-28 06:45:00,
2013-04-28 02:00:00,69.7,69.0,30.04,SSE,165,0.0,-999.0,98,-99.99,,,0.00,weatherlink.com 1.10,2013-04-28 07:00:00,
2013-04-28 02:15:00,70.0,70.0,30.05,SSE,165,0.0,-999.0,99,-99.99,,,0.00,weatherlink.com 1.10,2013-04-28 07:15:00,
2013-04-28 02:32:00,70.4,70.0,30.05,South,191,0.0,-999.0,99,-99.99,,,0.00,weatherlink.com 1.10,2013-04-28 07:32:00,
2013-04-28 02:45:00,70.7,70.0,30.05,SSW,194,0.0,-999.0,99,-99.99,,,0.00,weatherlink.com 1.10,2013-04-28 07:45:00,
2013-04-28 03:00:00,71.0,71.0,30.04,SSW,196,0.0,-999.0,99,-99.99,,,0.00,weatherlink.com 1.10,2013-04-28 08:00:00,
2013-04-28 03:15:00,71.2,71.0,30.04,SSW,192,0.0,-999.0,99,-99.99,,,0.00,weatherlink.com 1.10,2013-04-28 08:15:00,
2013-04-28 03:30:00,71.4,71.0,30.03,SW,214,0.0,-999.0,99,-99.99,,,0.00,weatherlink.com 1.10,2013-04-28 08:30:00,
2013-04-28 03:45:00,71.3,71.0,30.03,SW,214,0.0,-999.0,98,-99.99,,,0.00,weatherlink.com 1.10,2013-04-28 08:45:00,
2013-04-28 04:00:00,71.2,71.0,30.03,SW,214,0.0,-999.0,98,-99.99,,,0.00,weatherlink.com 1.10,2013-04-28 09:00:00,
2013-04-28 04:15:00,70.8,70.0,30.02,SW,214,0.0,-999.0,98,-99.99,,,0.00,weatherlink.com 1.10,2013-04-28 09:15:00,
2013-04-28 04:30:00,70.4,70.0,30.02,SW,214,0.0,-999.0,98,-99.99,,,0.00,weatherlink.com 1.10,2013-04-28 09:30:00,
2013-04-28 04:45:00,70.2,70.0,30.02,SW,214,0.0,-999.0,98,-99.99,,,0.00,weatherlink.com 1.10,2013-04-28 09:45:00,
2013-04-28 05:01:00,70.1,70.0,30.02,SW,214,0.0,-999.0,98,-99.99,,,0.00,weatherlink.com 1.10,2013-04-28 10:01:00,
2013-04-28 05:15:00,70.2,70.0,30.02,SW,214,0.0,-999.0,98,-99.99,,,0.00,weatherlink.com 1.10,2013-04-28 10:15:00,
2013-04-28 05:30:00,70.4,70.0,30.01,SSE,149,0.0,-999.0,99,-99.99,,,0.00,weatherlink.com 1.10,2013-04-28 10:30:00,
2013-04-28 05:45:00,70.6,70.0,30.01,SE,144,0.0,-999.0,99,-99.99,,,0.00,weatherlink.com 1.10,2013-04-28 10:45:00,
2013-04-28 06:00:00,71.0,71.0,30.02,SSE,160,4.0,-999.0,99,-99.99,,,0.00,weatherlink.com 1.10,2013-04-28 11:00:00,
2013-04-28 06:15:00,71.2,71.0,30.02,SSE,155,5.0,-999.0,99,-99.99,,,0.00,weatherlink.com 1.10,2013-04-28 11:15:00,
2013-04-28 06:30:00,71.3,71.0,30.02,SSE,160,0.0,-999.0,99,-99.99,,,0.00,weatherlink.com 1.10,2013-04-28 11:30:00,
2013-04-28 06:45:00,71.3,71.0,30.02,SSE,168,5.0,-999.0,99,-99.99,,,0.00,weatherlink.com 1.10,2013-04-28 11:45:00,
2013-04-28 07:00:00,71.5,71.0,30.03,SSE,163,4.0,-999.0,99,-99.99,,,0.00,weatherlink.com 1.10,2013-04-28 12:00:00,
2013-04-28 07:15:00,71.6,71.0,30.03,South,188,3.0,-999.0,99,-99.99,,,0.00,weatherlink.com 1.10,2013-04-28 12:15:00,
2013-04-28 07:30:00,71.7,71.0,30.03,SSE,165,0.0,-999.0,98,-99.99,,,0.00,weatherlink.com 1.10,2013-04-28 12:30:00,
2013-04-28 07:45:00,71.9,72.0,30.03,South,185,0.0,-999.0,99,-99.99,,,0.00,weatherlink.com 1.10,2013-04-28 12:45:00,
2013-04-28 08:00:00,72.3,72.0,30.02,SSE,167,8.0,-999.0,98,-99.99,,,0.00,weatherlink.com 1.10,2013-04-28 13:00:00,
2013-04-28 08:17:00,72.7,72.0,30.03,South,178,1.0,-999.0,97,-99.99,,,0.00,weatherlink.com 1.10,2013-04-28 13:17:00,
2013-04-28 08:30:00,73.0,72.0,30.03,WSW,241,0.0,-999.0,96,-99.99,,,0.00,weatherlink.com 1.10,2013-04-28 13:30:00,
2013-04-28 08:45:00,73.3,72.0,30.03,WSW,237,4.0,-999.0,95,-99.99,,,0.00,weatherlink.com 1.10,2013-04-28 13:45:00,
2013-04-28 09:01:00,73.8,72.0,30.04,South,180,4.0,-999.0,95,-99.99,,,0.00,weatherlink.com 1.10,2013-04-28 14:01:00,
2013-04-28 09:16:00,74.1,72.0,30.04,SSE,156,8.0,-999.0,94,-99.99,,,0.00,weatherlink.com 1.10,2013-04-28 14:16:00,
2013-04-28 09:32:00,74.2,72.0,30.03,SW,225,2.0,-999.0,94,-99.99,,,0.00,weatherlink.com 1.10,2013-04-28 14:32:00,
2013-04-28 09:46:00,74.5,72.0,30.03,South,175,0.0,-999.0,93,-99.99,,,0.00,weatherlink.com 1.10,2013-04-28 14:46:00,
2013-04-28 10:01:00,74.8,72.0,30.03,SSW,209,3.0,-999.0,91,-99.99,,,0.00,weatherlink.com 1.10,2013-04-28 15:01:00,
2013-04-28 10:17:00,74.9,73.0,30.03,SE,143,1.0,-999.0,92,-99.99,,,0.00,weatherlink.com 1.10,2013-04-28 15:17:00,
2013-04-28 10:31:00,75.3,73.0,30.03,SSE,155,4.0,-999.0,92,-99.99,,,0.00,weatherlink.com 1.10,2013-04-28 15:31:00,
2013-04-28 10:46:00,75.4,73.0,30.03,SSW,196,4.0,-999.0,91,-99.99,,,0.00,weatherlink.com 1.10,2013-04-28 15:46:00,
2013-04-28 11:01:00,75.8,73.0,30.03,South,186,1.0,-999.0,92,-99.99,,,0.00,weatherlink.com 1.10,2013-04-28 16:01:00,
2013-04-28 11:16:00,76.7,74.0,30.02,South,172,10.0,-999.0,90,-99.99,,,0.00,weatherlink.com 1.10,2013-04-28 16:16:00,
2013-04-28 11:31:00,76.9,74.0,30.02,SE,144,7.0,-999.0,89,-99.99,,,0.00,weatherlink.com 1.10,2013-04-28 16:31:00,
2013-04-28 11:46:00,76.2,73.0,30.02,SSE,155,9.0,-999.0,90,-99.99,,,0.00,weatherlink.com 1.10,2013-04-28 16:46:00,
2013-04-28 12:01:00,75.8,73.0,30.02,SSW,203,3.0,-999.0,92,-99.99,,,0.00,weatherlink.com 1.10,2013-04-28 17:01:00,
2013-04-28 12:16:00,75.7,73.0,30.02,SE,139,5.0,-999.0,91,-99.99,,,0.00,weatherlink.com 1.10,2013-04-28 17:16:00,
2013-04-28 12:31:00,75.2,73.0,30.02,South,181,6.0,-999.0,92,-99.99,,,0.00,weatherlink.com 1.10,2013-04-28 17:31:00,
2013-04-28 12:46:00,74.7,73.0,30.01,South,172,5.0,-999.0,93,-99.99,,,0.00,weatherlink.com 1.10,2013-04-28 17:46:00,
2013-04-28 13:01:00,74.4,73.0,30.00,SSE,168,6.0,-999.0,94,-99.99,,,0.00,weatherlink.com 1.10,2013-04-28 18:01:00,
2013-04-28 13:16:00,74.4,73.0,30.01,SSE,159,6.0,-999.0,94,-99.99,,,0.00,weatherlink.com 1.10,2013-04-28 18:16:00,
2013-04-28 13:31:00,74.1,72.0,30.01,SSW,213,2.0,-999.0,94,-99.99,,,0.00,weatherlink.com 1.10,2013-04-28 18:31:00,
2013-04-28 13:47:00,71.6,67.0,30.02,NW,306,0.0,-999.0,85,-99.99,,,0.00,weatherlink.com 1.10,2013-04-28 18:47:00,
2013-04-28 14:01:00,68.8,66.0,30.02,NNE,18,0.0,-999.0,92,-99.99,,,0.00,weatherlink.com 1.10,2013-04-28 19:01:00,
2013-04-28 14:16:00,67.9,66.0,30.01,NE,34,0.0,-999.0,93,-99.99,,,0.00,weatherlink.com 1.10,2013-04-28 19:16:00,
2013-04-28 14:31:00,67.8,66.0,29.99,NE,34,0.0,-999.0,94,-99.99,,,0.00,weatherlink.com 1.10,2013-04-28 19:31:00,
2013-04-28 14:48:00,68.5,67.0,29.98,NE,34,0.0,-999.0,95,-99.99,,,0.00,weatherlink.com 1.10,2013-04-28 19:48:00,
2013-04-28 15:17:00,69.8,68.0,29.99,NE,50,0.0,-999.0,93,-99.99,,,0.00,weatherlink.com 1.10,2013-04-28 20:17:00,
2013-04-28 15:32:00,71.4,68.0,29.98,NE,50,0.0,-999.0,89,-99.99,,,0.00,weatherlink.com 1.10,2013-04-28 20:32:00,
2013-04-28 15:47:00,72.8,68.0,29.97,East,96,0.0,-999.0,85,-99.99,,,0.00,weatherlink.com 1.10,2013-04-28 20:47:00,
2013-04-28 16:02:00,73.1,68.0,29.96,East,94,0.0,-999.0,84,-99.99,,,0.00,weatherlink.com 1.10,2013-04-28 21:02:00,
2013-04-28 16:17:00,73.3,69.0,29.96,ESE,113,4.0,-999.0,85,-99.99,,,0.00,weatherlink.com 1.10,2013-04-28 21:17:00,
2013-04-28 16:33:00,73.1,68.0,29.96,ESE,111,0.0,-999.0,85,-99.99,,,0.00,weatherlink.com 1.10,2013-04-28 21:33:00,
2013-04-28 16:46:00,72.9,68.0,29.96,ESE,111,0.0,-999.0,85,-99.99,,,0.00,weatherlink.com 1.10,2013-04-28 21:46:00,
2013-04-28 17:01:00,72.7,68.0,29.96,ESE,111,0.0,-999.0,85,-99.99,,,0.00,weatherlink.com 1.10,2013-04-28 22:01:00,
2013-04-28 17:16:00,72.4,68.0,29.96,ESE,111,0.0,-999.0,85,-99.99,,,0.00,weatherlink.com 1.10,2013-04-28 22:16:00,
2013-04-28 17:32:00,72.0,68.0,29.95,ESE,111,0.0,-999.0,87,-99.99,,,0.00,weatherlink.com 1.10,2013-04-28 22:32:00,
2013-04-28 17:47:00,71.8,68.0,29.95,ESE,111,0.0,-999.0,88,-99.99,,,0.00,weatherlink.com 1.10,2013-04-28 22:47:00,
2013-04-28 18:02:00,71.6,68.0,29.95,ESE,111,0.0,-999.0,88,-99.99,,,0.00,weatherlink.com 1.10,2013-04-28 23:02:00,
2013-04-28 18:17:00,71.3,69.0,29.95,ESE,111,0.0,-999.0,91,-99.99,,,0.00,weatherlink.com 1.10,2013-04-28 23:17:00,
2013-04-28 18:32:00,71.1,68.0,29.95,ESE,111,0.0,-999.0,91,-99.99,,,0.00,weatherlink.com 1.10,2013-04-28 23:32:00,
2013-04-28 18:47:00,70.9,68.0,29.95,ESE,111,0.0,-999.0,91,-99.99,,,0.00,weatherlink.com 1.10,2013-04-28 23:47:00,
2013-04-28 19:02:00,70.8,68.0,29.95,ESE,111,0.0,-999.0,91,-99.99,,,0.00,weatherlink.com 1.10,2013-04-29 00:02:00,
2013-04-28 19:17:00,70.7,68.0,29.94,ESE,111,0.0,-999.0,91,-99.99,,,0.00,weatherlink.com 1.10,2013-04-29 00:17:00,
2013-04-28 19:33:00,70.4,68.0,29.95,ESE,111,0.0,-999.0,92,-99.99,,,0.00,weatherlink.com 1.10,2013-04-29 00:33:00,
2013-04-28 19:47:00,70.2,68.0,29.96,ESE,111,0.0,-999.0,93,-99.99,,,0.00,weatherlink.com 1.10,2013-04-29 00:47:00,
2013-04-28 20:02:00,70.1,68.0,29.96,ESE,111,0.0,-999.0,93,-99.99,,,0.00,weatherlink.com 1.10,2013-04-29 01:02:00,
2013-04-28 20:17:00,70.0,68.0,29.96,ESE,111,0.0,-999.0,93,-99.99,,,0.00,weatherlink.com 1.10,2013-04-29 01:17:00,
2013-04-28 20:32:00,69.9,68.0,29.97,ESE,111,0.0,-999.0,94,-99.99,,,0.00,weatherlink.com 1.10,2013-04-29 01:32:00,
2013-04-28 20:47:00,69.7,68.0,29.98,ESE,111,0.0,-999.0,94,-99.99,,,0.00,weatherlink.com 1.10,2013-04-29 01:47:00,
2013-04-28 21:02:00,69.7,68.0,29.98,ESE,111,0.0,-999.0,95,-99.99,,,0.00,weatherlink.com 1.10,2013-04-29 02:02:00,
2013-04-28 21:17:00,69.6,68.0,29.98,ESE,111,0.0,-999.0,95,-99.99,,,0.00,weatherlink.com 1.10,2013-04-29 02:17:00,
2013-04-28 21:32:00,69.5,68.0,29.99,ESE,111,0.0,-999.0,95,-99.99,,,0.00,weatherlink.com 1.10,2013-04-29 02:32:00,
2013-04-28 21:47:00,69.4,68.0,29.99,ESE,111,0.0,-999.0,96,-99.99,,,0.03,weatherlink.com 1.10,2013-04-29 02:47:00,
2013-04-28 22:02:00,69.1,68.0,29.99,ESE,111,0.0,-999.0,96,-99.99,,,0.04,weatherlink.com 1.10,2013-04-29 03:02:00,
2013-04-28 22:17:00,68.8,68.0,29.99,ESE,111,0.0,-999.0,96,-99.99,,,0.04,weatherlink.com 1.10,2013-04-29 03:17:00,
2013-04-28 22:32:00,68.1,67.0,29.97,ESE,111,0.0,-999.0,96,-99.99,,,0.05,weatherlink.com 1.10,2013-04-29 03:32:00,
2013-04-28 22:47:00,67.4,66.0,29.97,ESE,111,0.0,-999.0,96,-99.99,,,0.05,weatherlink.com 1.10,2013-04-29 03:47:00,
2013-04-28 23:02:00,67.2,66.0,29.97,ESE,111,0.0,-999.0,97,-99.99,,,0.05,weatherlink.com 1.10,2013-04-29 04:02:00,
2013-04-28 23:17:00,66.9,66.0,29.97,ESE,111,4.0,-999.0,97,-99.99,,,0.05,weatherlink.com 1.10,2013-04-29 04:17:00,
2013-04-28 23:32:00,66.8,66.0,29.97,ESE,111,0.0,-999.0,98,-99.99,,,0.05,weatherlink.com 1.10,2013-04-29 04:32:00,
2013-04-28 23:47:00,67.1,67.0,29.98,West,280,1.0,-999.0,98,-99.99,,,0.05,weatherlink.com 1.10,2013-04-29 04:47:00,